Terminal Aerodrome Forecast
Issued by NWS

Home | Current Version | Previous Version | Text Only | Print | Product List | Glossary On
Versions: 1 2 3 4 5 6 7 8 9 10 11 12 13 14 15 16 17
375
FTUS41 KBGM 201139
TAFITH
TAF
KITH 201139Z 2012/2112 VRB03KT P6SM SKC
     FM201600 28005KT P6SM BKN200
     FM202300 18005KT P6SM OVC080
     FM210000 16005KT P6SM OVC040
      TEMPO 2100/2103 5SM -TSRA BKN035CB
     FM210500 25004KT 5SM BR BKN040=

USA.gov is the U.S. government's official web portal to all federal, state and local government web resources and services.